Hartland, Canada
Current Conditions -  °F | °C
As of 3:53 PM on Tuesday 21 Oct 2014 (Local Time) from KHUL Reporting Station
Overcast Overcast  
Wind Chill: 45°   Ceiling: 7000
Heat Index: 47°   Visibility: 10mi
Dew Point: 32°   Wind: 5mph
Humidity: 56%   Direction: NA
Pressure: 30.13"   Gusts: NA
Location:  46.3°N, 67.52°W
Report Text: KHUL 211853Z AUTO VRB04KT 10SM BKN070 OVC085 08/00 A3013 RMK AO2 SLP209 T00830000
Loading
Personal Weather Stations






























Interactive Weather Map
Tropical Storm Tracking
New forecast layout! Learn more

10-Day Weather Forecast

Advertisements
Track Severe Weather on mobile